sensor_id;sensor_type;location;lat;lon;timestamp;temperature;humidity
75899;DHT22;64576;50.460;4.866;2023-05-07T00:01:05;13.77;86.05
75899;DHT22;64576;50.460;4.866;2023-05-07T00:03:31;13.84;85.83
75899;DHT22;64576;50.460;4.866;2023-05-07T00:05:58;13.86;85.69
75899;DHT22;64576;50.460;4.866;2023-05-07T00:08:23;13.81;86.38
75899;DHT22;64576;50.460;4.866;2023-05-07T00:10:49;13.75;86.42
75899;DHT22;64576;50.460;4.866;2023-05-07T00:13:14;13.73;86.51
75899;DHT22;64576;50.460;4.866;2023-05-07T00:15:40;13.73;86.33
75899;DHT22;64576;50.460;4.866;2023-05-07T00:18:05;13.73;86.22
75899;DHT22;64576;50.460;4.866;2023-05-07T00:20:30;13.73;85.93
75899;DHT22;64576;50.460;4.866;2023-05-07T00:22:56;13.73;85.94
75899;DHT22;64576;50.460;4.866;2023-05-07T00:25:21;13.73;85.89
75899;DHT22;64576;50.460;4.866;2023-05-07T00:27:46;13.65;86.30
75899;DHT22;64576;50.460;4.866;2023-05-07T00:30:12;13.65;85.87
75899;DHT22;64576;50.460;4.866;2023-05-07T00:32:38;13.55;86.81
75899;DHT22;64576;50.460;4.866;2023-05-07T00:35:04;13.39;87.90
75899;DHT22;64576;50.460;4.866;2023-05-07T00:37:30;13.33;87.93
75899;DHT22;64576;50.460;4.866;2023-05-07T00:39:56;13.26;88.25
75899;DHT22;64576;50.460;4.866;2023-05-07T00:42:21;13.24;88.11
75899;DHT22;64576;50.460;4.866;2023-05-07T00:44:46;13.27;87.74
75899;DHT22;64576;50.460;4.866;2023-05-07T00:47:12;13.23;87.33
75899;DHT22;64576;50.460;4.866;2023-05-07T00:49:42;13.26;88.26
75899;DHT22;64576;50.460;4.866;2023-05-07T00:52:09;13.22;88.20
75899;DHT22;64576;50.460;4.866;2023-05-07T00:54:36;13.22;88.57
75899;DHT22;64576;50.460;4.866;2023-05-07T00:57:02;13.15;89.21
75899;DHT22;64576;50.460;4.866;2023-05-07T00:59:29;13.06;89.59
75899;DHT22;64576;50.460;4.866;2023-05-07T01:01:55;13.06;89.53
75899;DHT22;64576;50.460;4.866;2023-05-07T01:04:20;13.00;89.94
75899;DHT22;64576;50.460;4.866;2023-05-07T01:06:46;12.99;90.06
75899;DHT22;64576;50.460;4.866;2023-05-07T01:09:12;12.99;90.20
75899;DHT22;64576;50.460;4.866;2023-05-07T01:11:38;13.00;90.24
75899;DHT22;64576;50.460;4.866;2023-05-07T01:14:04;12.96;90.14
75899;DHT22;64576;50.460;4.866;2023-05-07T01:16:29;12.98;90.28
75899;DHT22;64576;50.460;4.866;2023-05-07T01:18:55;12.96;90.33
75899;DHT22;64576;50.460;4.866;2023-05-07T01:21:25;12.93;90.47
75899;DHT22;64576;50.460;4.866;2023-05-07T01:23:52;12.96;90.59
75899;DHT22;64576;50.460;4.866;2023-05-07T01:26:18;12.95;90.59
75899;DHT22;64576;50.460;4.866;2023-05-07T01:28:45;12.96;90.71
75899;DHT22;64576;50.460;4.866;2023-05-07T01:31:12;12.98;90.50
75899;DHT22;64576;50.460;4.866;2023-05-07T01:33:40;13.00;90.39
75899;DHT22;64576;50.460;4.866;2023-05-07T01:36:07;13.00;90.10
75899;DHT22;64576;50.460;4.866;2023-05-07T01:38:35;13.02;90.05
75899;DHT22;64576;50.460;4.866;2023-05-07T01:41:01;13.02;90.08
75899;DHT22;64576;50.460;4.866;2023-05-07T01:43:28;13.03;90.00
75899;DHT22;64576;50.460;4.866;2023-05-07T01:45:55;13.02;90.17
75899;DHT22;64576;50.460;4.866;2023-05-07T01:48:20;13.00;89.91
75899;DHT22;64576;50.460;4.866;2023-05-07T01:50:46;13.00;89.97
75899;DHT22;64576;50.460;4.866;2023-05-07T01:53:12;13.02;89.82
75899;DHT22;64576;50.460;4.866;2023-05-07T01:55:37;13.02;89.86
75899;DHT22;64576;50.460;4.866;2023-05-07T01:58:03;12.99;89.75
75899;DHT22;64576;50.460;4.866;2023-05-07T02:00:29;13.03;89.42
75899;DHT22;64576;50.460;4.866;2023-05-07T02:02:54;13.09;89.08
75899;DHT22;64576;50.460;4.866;2023-05-07T02:05:20;13.13;88.94
75899;DHT22;64576;50.460;4.866;2023-05-07T02:07:45;13.12;89.12
75899;DHT22;64576;50.460;4.866;2023-05-07T02:10:11;13.08;89.59
75899;DHT22;64576;50.460;4.866;2023-05-07T02:12:36;13.02;89.91
75899;DHT22;64576;50.460;4.866;2023-05-07T02:15:01;12.96;90.21
75899;DHT22;64576;50.460;4.866;2023-05-07T02:17:27;12.92;90.23
75899;DHT22;64576;50.460;4.866;2023-05-07T02:19:52;12.87;90.69
75899;DHT22;64576;50.460;4.866;2023-05-07T02:22:18;12.74;92.04
75899;DHT22;64576;50.460;4.866;2023-05-07T02:24:43;12.58;92.98
75899;DHT22;64576;50.460;4.866;2023-05-07T02:27:09;12.47;93.49
75899;DHT22;64576;50.460;4.866;2023-05-07T02:29:35;12.41;94.11
75899;DHT22;64576;50.460;4.866;2023-05-07T02:32:00;12.34;94.45
75899;DHT22;64576;50.460;4.866;2023-05-07T02:34:26;12.32;94.15
75899;DHT22;64576;50.460;4.866;2023-05-07T02:36:51;12.40;93.84
75899;DHT22;64576;50.460;4.866;2023-05-07T02:39:17;12.40;93.64
75899;DHT22;64576;50.460;4.866;2023-05-07T02:41:42;12.40;93.40
75899;DHT22;64576;50.460;4.866;2023-05-07T02:44:07;12.40;93.48
75899;DHT22;64576;50.460;4.866;2023-05-07T02:46:33;12.37;93.66
75899;DHT22;64576;50.460;4.866;2023-05-07T02:48:58;12.34;93.69
75899;DHT22;64576;50.460;4.866;2023-05-07T02:51:25;12.38;93.39
75899;DHT22;64576;50.460;4.866;2023-05-07T02:53:51;12.38;93.40
75899;DHT22;64576;50.460;4.866;2023-05-07T02:56:16;12.40;93.23
75899;DHT22;64576;50.460;4.866;2023-05-07T02:58:41;12.43;93.21
75899;DHT22;64576;50.460;4.866;2023-05-07T03:01:07;12.41;93.35
75899;DHT22;64576;50.460;4.866;2023-05-07T03:03:33;12.43;93.20
75899;DHT22;64576;50.460;4.866;2023-05-07T03:05:59;12.45;93.23
75899;DHT22;64576;50.460;4.866;2023-05-07T03:08:24;12.48;93.13
75899;DHT22;64576;50.460;4.866;2023-05-07T03:10:50;12.53;93.09
75899;DHT22;64576;50.460;4.866;2023-05-07T03:13:15;12.51;93.14
75899;DHT22;64576;50.460;4.866;2023-05-07T03:15:41;12.45;93.39
75899;DHT22;64576;50.460;4.866;2023-05-07T03:18:06;12.41;93.52
75899;DHT22;64576;50.460;4.866;2023-05-07T03:20:32;12.34;93.79
75899;DHT22;64576;50.460;4.866;2023-05-07T03:22:57;12.26;94.37
75899;DHT22;64576;50.460;4.866;2023-05-07T03:25:23;12.20;94.73
75899;DHT22;64576;50.460;4.866;2023-05-07T03:27:48;12.33;94.07
75899;DHT22;64576;50.460;4.866;2023-05-07T03:30:13;12.50;92.98
75899;DHT22;64576;50.460;4.866;2023-05-07T03:32:39;12.32;94.00
75899;DHT22;64576;50.460;4.866;2023-05-07T03:35:05;12.00;95.37
75899;DHT22;64576;50.460;4.866;2023-05-07T03:37:30;11.89;96.10
75899;DHT22;64576;50.460;4.866;2023-05-07T03:39:56;11.86;96.49
75899;DHT22;64576;50.460;4.866;2023-05-07T03:42:21;11.90;96.11
75899;DHT22;64576;50.460;4.866;2023-05-07T03:44:47;11.96;95.81
75899;DHT22;64576;50.460;4.866;2023-05-07T03:47:12;12.03;95.32
75899;DHT22;64576;50.460;4.866;2023-05-07T03:49:38;12.16;94.60
75899;DHT22;64576;50.460;4.866;2023-05-07T03:52:05;12.22;94.40
75899;DHT22;64576;50.460;4.866;2023-05-07T03:54:31;12.26;93.96
75899;DHT22;64576;50.460;4.866;2023-05-07T03:56:56;12.27;93.69
75899;DHT22;64576;50.460;4.866;2023-05-07T03:59:22;12.23;93.83
75899;DHT22;64576;50.460;4.866;2023-05-07T04:01:47;12.37;93.37
75899;DHT22;64576;50.460;4.866;2023-05-07T04:04:14;12.38;93.17
75899;DHT22;64576;50.460;4.866;2023-05-07T04:06:39;12.43;92.71
75899;DHT22;64576;50.460;4.866;2023-05-07T04:09:05;12.60;91.82
75899;DHT22;64576;50.460;4.866;2023-05-07T04:11:31;12.64;91.74
75899;DHT22;64576;50.460;4.866;2023-05-07T04:13:57;12.64;91.79
75899;DHT22;64576;50.460;4.866;2023-05-07T04:16:22;12.48;92.58
75899;DHT22;64576;50.460;4.866;2023-05-07T04:18:47;12.30;93.76
75899;DHT22;64576;50.460;4.866;2023-05-07T04:21:17;12.20;94.21
75899;DHT22;64576;50.460;4.866;2023-05-07T04:23:43;12.13;94.98
75899;DHT22;64576;50.460;4.866;2023-05-07T04:26:08;12.10;95.07
75899;DHT22;64576;50.460;4.866;2023-05-07T04:28:34;12.09;95.16
75899;DHT22;64576;50.460;4.866;2023-05-07T04:31:00;12.06;95.17
75899;DHT22;64576;50.460;4.866;2023-05-07T04:33:25;12.12;94.84
75899;DHT22;64576;50.460;4.866;2023-05-07T04:35:51;12.23;94.32
75899;DHT22;64576;50.460;4.866;2023-05-07T04:38:16;12.29;94.06
75899;DHT22;64576;50.460;4.866;2023-05-07T04:40:43;12.38;93.81
75899;DHT22;64576;50.460;4.866;2023-05-07T04:43:09;12.41;93.61
75899;DHT22;64576;50.460;4.866;2023-05-07T04:45:35;12.44;93.59
75899;DHT22;64576;50.460;4.866;2023-05-07T04:48:01;12.50;93.25
75899;DHT22;64576;50.460;4.866;2023-05-07T04:50:26;12.51;93.11
75899;DHT22;64576;50.460;4.866;2023-05-07T04:52:52;12.53;93.29
75899;DHT22;64576;50.460;4.866;2023-05-07T04:55:17;12.40;94.13
75899;DHT22;64576;50.460;4.866;2023-05-07T04:57:43;12.29;94.61
75899;DHT22;64576;50.460;4.866;2023-05-07T05:00:08;12.20;94.94
75899;DHT22;64576;50.460;4.866;2023-05-07T05:02:34;12.20;95.06
75899;DHT22;64576;50.460;4.866;2023-05-07T05:05:00;12.24;94.98
75899;DHT22;64576;50.460;4.866;2023-05-07T05:07:27;12.27;94.81
75899;DHT22;64576;50.460;4.866;2023-05-07T05:09:52;12.30;94.63
75899;DHT22;64576;50.460;4.866;2023-05-07T05:12:18;12.34;94.39
75899;DHT22;64576;50.460;4.866;2023-05-07T05:14:43;12.37;94.15
75899;DHT22;64576;50.460;4.866;2023-05-07T05:17:09;12.36;94.03
75899;DHT22;64576;50.460;4.866;2023-05-07T05:19:34;12.38;93.83
75899;DHT22;64576;50.460;4.866;2023-05-07T05:21:59;12.40;93.72
75899;DHT22;64576;50.460;4.866;2023-05-07T05:24:26;12.50;93.44
75899;DHT22;64576;50.460;4.866;2023-05-07T05:26:53;12.50;93.40
75899;DHT22;64576;50.460;4.866;2023-05-07T05:29:18;12.45;93.42
75899;DHT22;64576;50.460;4.866;2023-05-07T05:31:43;12.47;93.46
75899;DHT22;64576;50.460;4.866;2023-05-07T05:34:09;12.55;92.93
75899;DHT22;64576;50.460;4.866;2023-05-07T05:36:34;12.71;92.32
75899;DHT22;64576;50.460;4.866;2023-05-07T05:39:00;12.81;91.95
75899;DHT22;64576;50.460;4.866;2023-05-07T05:41:25;12.92;91.49
75899;DHT22;64576;50.460;4.866;2023-05-07T05:43:50;13.08;90.85
75899;DHT22;64576;50.460;4.866;2023-05-07T05:46:16;13.23;90.06
75899;DHT22;64576;50.460;4.866;2023-05-07T05:48:41;13.43;89.54
75899;DHT22;64576;50.460;4.866;2023-05-07T05:51:07;13.61;88.35
75899;DHT22;64576;50.460;4.866;2023-05-07T05:53:32;13.84;87.42
75899;DHT22;64576;50.460;4.866;2023-05-07T05:55:57;14.04;86.93
75899;DHT22;64576;50.460;4.866;2023-05-07T05:58:23;14.20;86.40
75899;DHT22;64576;50.460;4.866;2023-05-07T06:00:48;14.30;86.06
75899;DHT22;64576;50.460;4.866;2023-05-07T06:03:17;14.41;85.63
75899;DHT22;64576;50.460;4.866;2023-05-07T06:05:42;14.53;84.97
75899;DHT22;64576;50.460;4.866;2023-05-07T06:08:08;14.57;85.06
75899;DHT22;64576;50.460;4.866;2023-05-07T06:10:36;14.61;85.12
75899;DHT22;64576;50.460;4.866;2023-05-07T06:13:01;14.60;85.31
75899;DHT22;64576;50.460;4.866;2023-05-07T06:15:27;14.75;84.86
75899;DHT22;64576;50.460;4.866;2023-05-07T06:17:52;14.73;84.45
75899;DHT22;64576;50.460;4.866;2023-05-07T06:20:17;14.77;84.58
75899;DHT22;64576;50.460;4.866;2023-05-07T06:22:43;14.57;85.29
75899;DHT22;64576;50.460;4.866;2023-05-07T06:25:08;14.61;85.35
75899;DHT22;64576;50.460;4.866;2023-05-07T06:27:34;14.70;85.43
75899;DHT22;64576;50.460;4.866;2023-05-07T06:30:00;14.80;85.07
75899;DHT22;64576;50.460;4.866;2023-05-07T06:32:25;14.96;84.88
75899;DHT22;64576;50.460;4.866;2023-05-07T06:34:51;15.12;83.80
75899;DHT22;64576;50.460;4.866;2023-05-07T06:37:16;15.30;81.91
75899;DHT22;64576;50.460;4.866;2023-05-07T06:39:41;15.46;81.82
75899;DHT22;64576;50.460;4.866;2023-05-07T06:42:07;15.04;85.22
75899;DHT22;64576;50.460;4.866;2023-05-07T06:44:32;15.01;84.06
75899;DHT22;64576;50.460;4.866;2023-05-07T06:46:58;15.49;82.92
75899;DHT22;64576;50.460;4.866;2023-05-07T06:49:23;15.56;82.00
75899;DHT22;64576;50.460;4.866;2023-05-07T06:51:49;15.64;81.44
75899;DHT22;64576;50.460;4.866;2023-05-07T06:54:14;15.98;80.64
75899;DHT22;64576;50.460;4.866;2023-05-07T06:56:39;16.22;80.37
75899;DHT22;64576;50.460;4.866;2023-05-07T06:59:06;16.16;78.82
75899;DHT22;64576;50.460;4.866;2023-05-07T07:01:31;16.00;79.93
75899;DHT22;64576;50.460;4.866;2023-05-07T07:03:57;16.06;80.27
75899;DHT22;64576;50.460;4.866;2023-05-07T07:06:22;15.67;81.14
75899;DHT22;64576;50.460;4.866;2023-05-07T07:08:48;15.57;81.18
75899;DHT22;64576;50.460;4.866;2023-05-07T07:11:14;15.47;82.40
75899;DHT22;64576;50.460;4.866;2023-05-07T07:13:40;15.42;82.67
75899;DHT22;64576;50.460;4.866;2023-05-07T07:16:06;15.32;83.21
75899;DHT22;64576;50.460;4.866;2023-05-07T07:18:31;15.47;83.39
75899;DHT22;64576;50.460;4.866;2023-05-07T07:20:57;15.51;82.76
75899;DHT22;64576;50.460;4.866;2023-05-07T07:23:22;15.59;83.53
75899;DHT22;64576;50.460;4.866;2023-05-07T07:25:47;15.43;82.59
75899;DHT22;64576;50.460;4.866;2023-05-07T07:28:13;15.42;83.99
75899;DHT22;64576;50.460;4.866;2023-05-07T07:30:39;15.35;83.59
75899;DHT22;64576;50.460;4.866;2023-05-07T07:33:05;15.18;83.69
75899;DHT22;64576;50.460;4.866;2023-05-07T07:35:34;15.09;84.47
75899;DHT22;64576;50.460;4.866;2023-05-07T07:37:59;15.04;84.49
75899;DHT22;64576;50.460;4.866;2023-05-07T07:40:25;14.99;85.27
75899;DHT22;64576;50.460;4.866;2023-05-07T07:42:51;14.91;85.45
75899;DHT22;64576;50.460;4.866;2023-05-07T07:45:17;14.87;85.95
75899;DHT22;64576;50.460;4.866;2023-05-07T07:47:42;14.87;86.37
75899;DHT22;64576;50.460;4.866;2023-05-07T07:50:08;14.83;86.99
75899;DHT22;64576;50.460;4.866;2023-05-07T07:52:34;14.61;86.97
75899;DHT22;64576;50.460;4.866;2023-05-07T07:54:59;14.61;87.66
75899;DHT22;64576;50.460;4.866;2023-05-07T07:57:25;14.59;88.10
75899;DHT22;64576;50.460;4.866;2023-05-07T07:59:50;14.59;88.48
75899;DHT22;64576;50.460;4.866;2023-05-07T08:02:16;14.63;88.48
75899;DHT22;64576;50.460;4.866;2023-05-07T08:04:42;14.57;88.64
75899;DHT22;64576;50.460;4.866;2023-05-07T08:07:09;14.59;88.99
75899;DHT22;64576;50.460;4.866;2023-05-07T08:09:35;14.53;88.96
75899;DHT22;64576;50.460;4.866;2023-05-07T08:12:01;14.68;89.47
75899;DHT22;64576;50.460;4.866;2023-05-07T08:14:26;14.74;89.44
75899;DHT22;64576;50.460;4.866;2023-05-07T08:16:53;14.74;89.67
75899;DHT22;64576;50.460;4.866;2023-05-07T08:19:19;14.84;89.22
75899;DHT22;64576;50.460;4.866;2023-05-07T08:21:45;14.89;89.92
75899;DHT22;64576;50.460;4.866;2023-05-07T08:24:13;14.96;89.10
75899;DHT22;64576;50.460;4.866;2023-05-07T08:26:38;15.08;88.87
75899;DHT22;64576;50.460;4.866;2023-05-07T08:29:04;15.19;88.49
75899;DHT22;64576;50.460;4.866;2023-05-07T08:31:30;15.28;88.58
75899;DHT22;64576;50.460;4.866;2023-05-07T08:33:56;15.39;89.09
75899;DHT22;64576;50.460;4.866;2023-05-07T08:36:22;15.51;89.37
75899;DHT22;64576;50.460;4.866;2023-05-07T08:38:47;15.54;88.89
75899;DHT22;64576;50.460;4.866;2023-05-07T08:41:13;15.59;89.28
75899;DHT22;64576;50.460;4.866;2023-05-07T08:43:40;15.46;88.97
75899;DHT22;64576;50.460;4.866;2023-05-07T08:46:08;15.59;89.55
75899;DHT22;64576;50.460;4.866;2023-05-07T08:48:35;15.59;88.85
75899;DHT22;64576;50.460;4.866;2023-05-07T08:51:01;15.56;89.17
75899;DHT22;64576;50.460;4.866;2023-05-07T08:53:26;15.50;89.83
75899;DHT22;64576;50.460;4.866;2023-05-07T08:55:55;15.50;90.59
75899;DHT22;64576;50.460;4.866;2023-05-07T08:58:28;15.56;90.40
75899;DHT22;64576;50.460;4.866;2023-05-07T09:00:53;15.54;90.92
75899;DHT22;64576;50.460;4.866;2023-05-07T09:03:19;15.43;90.06
75899;DHT22;64576;50.460;4.866;2023-05-07T09:05:44;15.39;90.31
75899;DHT22;64576;50.460;4.866;2023-05-07T09:08:10;15.39;90.02
75899;DHT22;64576;50.460;4.866;2023-05-07T09:10:39;15.36;90.25
75899;DHT22;64576;50.460;4.866;2023-05-07T09:13:04;15.39;90.96
75899;DHT22;64576;50.460;4.866;2023-05-07T09:15:30;15.46;90.68
75899;DHT22;64576;50.460;4.866;2023-05-07T09:18:00;15.43;90.37
75899;DHT22;64576;50.460;4.866;2023-05-07T09:20:26;15.32;90.73
75899;DHT22;64576;50.460;4.866;2023-05-07T09:22:51;15.33;90.94
75899;DHT22;64576;50.460;4.866;2023-05-07T09:25:28;15.32;91.81
75899;DHT22;64576;50.460;4.866;2023-05-07T09:27:54;15.25;92.18
75899;DHT22;64576;50.460;4.866;2023-05-07T09:30:19;15.16;92.22
75899;DHT22;64576;50.460;4.866;2023-05-07T09:32:45;15.25;91.99
75899;DHT22;64576;50.460;4.866;2023-05-07T09:35:17;15.28;92.48
75899;DHT22;64576;50.460;4.866;2023-05-07T09:37:43;15.29;92.77
75899;DHT22;64576;50.460;4.866;2023-05-07T09:40:22;15.28;93.38
75899;DHT22;64576;50.460;4.866;2023-05-07T09:42:49;15.23;93.50
75899;DHT22;64576;50.460;4.866;2023-05-07T09:45:15;15.15;93.18
75899;DHT22;64576;50.460;4.866;2023-05-07T09:47:42;15.05;94.01
75899;DHT22;64576;50.460;4.866;2023-05-07T09:50:10;15.04;94.35
75899;DHT22;64576;50.460;4.866;2023-05-07T09:52:38;15.13;94.28
75899;DHT22;64576;50.460;4.866;2023-05-07T09:55:04;15.25;93.74
75899;DHT22;64576;50.460;4.866;2023-05-07T09:57:32;15.71;93.53
75899;DHT22;64576;50.460;4.866;2023-05-07T09:59:59;15.83;93.15
75899;DHT22;64576;50.460;4.866;2023-05-07T10:02:27;15.64;93.31
75899;DHT22;64576;50.460;4.866;2023-05-07T10:04:55;15.44;94.13
75899;DHT22;64576;50.460;4.866;2023-05-07T10:07:21;15.28;94.08
75899;DHT22;64576;50.460;4.866;2023-05-07T10:09:47;15.16;94.53
75899;DHT22;64576;50.460;4.866;2023-05-07T10:12:13;15.16;94.69
75899;DHT22;64576;50.460;4.866;2023-05-07T10:14:38;15.40;94.17
75899;DHT22;64576;50.460;4.866;2023-05-07T10:17:04;15.56;94.39
75899;DHT22;64576;50.460;4.866;2023-05-07T10:19:31;15.61;93.43
75899;DHT22;64576;50.460;4.866;2023-05-07T10:22:04;15.46;93.20
75899;DHT22;64576;50.460;4.866;2023-05-07T10:24:33;15.60;93.29
75899;DHT22;64576;50.460;4.866;2023-05-07T10:27:06;15.63;93.61
75899;DHT22;64576;50.460;4.866;2023-05-07T10:32:26;15.43;93.50
75899;DHT22;64576;50.460;4.866;2023-05-07T10:34:58;15.50;92.99
75899;DHT22;64576;50.460;4.866;2023-05-07T10:37:25;15.74;93.76
75899;DHT22;64576;50.460;4.866;2023-05-07T10:39:52;15.90;92.72
75899;DHT22;64576;50.460;4.866;2023-05-07T10:42:17;15.78;92.45
75899;DHT22;64576;50.460;4.866;2023-05-07T10:44:43;15.71;92.72
75899;DHT22;64576;50.460;4.866;2023-05-07T10:47:10;15.68;92.38
75899;DHT22;64576;50.460;4.866;2023-05-07T10:52:22;16.14;92.97
75899;DHT22;64576;50.460;4.866;2023-05-07T10:57:40;16.43;91.26
75899;DHT22;64576;50.460;4.866;2023-05-07T11:05:24;16.32;90.84
75899;DHT22;64576;50.460;4.866;2023-05-07T11:08:00;16.41;90.59
75899;DHT22;64576;50.460;4.866;2023-05-07T11:13:14;16.79;90.35
75899;DHT22;64576;50.460;4.866;2023-05-07T11:15:45;16.60;89.39
75899;DHT22;64576;50.460;4.866;2023-05-07T11:18:12;16.87;91.08
75899;DHT22;64576;50.460;4.866;2023-05-07T11:20:54;16.79;90.07
75899;DHT22;64576;50.460;4.866;2023-05-07T11:26:02;16.11;91.38
75899;DHT22;64576;50.460;4.866;2023-05-07T11:28:28;16.04;91.01
75899;DHT22;64576;50.460;4.866;2023-05-07T11:30:54;15.93;91.11
75899;DHT22;64576;50.460;4.866;2023-05-07T11:33:22;15.87;91.88
75899;DHT22;64576;50.460;4.866;2023-05-07T11:35:47;16.04;92.30
75899;DHT22;64576;50.460;4.866;2023-05-07T11:38:13;16.04;91.92
75899;DHT22;64576;50.460;4.866;2023-05-07T11:40:49;16.12;91.50
75899;DHT22;64576;50.460;4.866;2023-05-07T11:43:15;16.38;93.53
75899;DHT22;64576;50.460;4.866;2023-05-07T11:45:41;16.32;92.47
75899;DHT22;64576;50.460;4.866;2023-05-07T11:48:06;16.52;93.89
75899;DHT22;64576;50.460;4.866;2023-05-07T11:50:32;16.33;92.96
75899;DHT22;64576;50.460;4.866;2023-05-07T11:52:57;16.43;92.91
75899;DHT22;64576;50.460;4.866;2023-05-07T11:55:24;16.39;91.87
75899;DHT22;64576;50.460;4.866;2023-05-07T11:57:51;16.76;93.52
75899;DHT22;64576;50.460;4.866;2023-05-07T12:00:16;16.76;91.93
75899;DHT22;64576;50.460;4.866;2023-05-07T12:02:43;16.84;91.98
75899;DHT22;64576;50.460;4.866;2023-05-07T12:05:10;16.60;90.12
75899;DHT22;64576;50.460;4.866;2023-05-07T12:07:35;16.77;91.51
75899;DHT22;64576;50.460;4.866;2023-05-07T12:10:07;16.52;90.44
75899;DHT22;64576;50.460;4.866;2023-05-07T12:12:45;16.43;91.26
75899;DHT22;64576;50.460;4.866;2023-05-07T12:15:17;16.53;91.06
75899;DHT22;64576;50.460;4.866;2023-05-07T12:17:43;16.74;91.57
75899;DHT22;64576;50.460;4.866;2023-05-07T12:20:09;16.63;94.66
75899;DHT22;64576;50.460;4.866;2023-05-07T12:22:36;16.64;89.08
75899;DHT22;64576;50.460;4.866;2023-05-07T12:25:01;16.80;88.45
75899;DHT22;64576;50.460;4.866;2023-05-07T12:27:28;16.67;89.34
75899;DHT22;64576;50.460;4.866;2023-05-07T12:29:53;16.91;90.16
75899;DHT22;64576;50.460;4.866;2023-05-07T12:32:20;16.90;89.07
75899;DHT22;64576;50.460;4.866;2023-05-07T12:34:49;16.88;88.67
75899;DHT22;64576;50.460;4.866;2023-05-07T12:37:14;16.80;88.48
75899;DHT22;64576;50.460;4.866;2023-05-07T12:40:03;17.10;90.31
75899;DHT22;64576;50.460;4.866;2023-05-07T12:42:35;17.26;88.77
75899;DHT22;64576;50.460;4.866;2023-05-07T12:45:07;17.17;89.02
75899;DHT22;64576;50.460;4.866;2023-05-07T12:47:33;17.18;89.21
75899;DHT22;64576;50.460;4.866;2023-05-07T12:49:59;17.38;89.57
75899;DHT22;64576;50.460;4.866;2023-05-07T12:52:24;17.18;88.15
75899;DHT22;64576;50.460;4.866;2023-05-07T12:54:50;17.04;90.88
75899;DHT22;64576;50.460;4.866;2023-05-07T12:57:19;17.24;91.42
75899;DHT22;64576;50.460;4.866;2023-05-07T12:59:44;17.22;87.99
75899;DHT22;64576;50.460;4.866;2023-05-07T13:02:10;17.03;88.93
75899;DHT22;64576;50.460;4.866;2023-05-07T13:04:35;17.01;88.17
75899;DHT22;64576;50.460;4.866;2023-05-07T13:07:02;16.70;88.18
75899;DHT22;64576;50.460;4.866;2023-05-07T13:09:28;16.59;89.01
75899;DHT22;64576;50.460;4.866;2023-05-07T13:11:54;16.77;91.38
75899;DHT22;64576;50.460;4.866;2023-05-07T13:14:20;16.84;89.98
75899;DHT22;64576;50.460;4.866;2023-05-07T13:16:46;16.79;88.38
75899;DHT22;64576;50.460;4.866;2023-05-07T13:19:12;16.67;89.49
75899;DHT22;64576;50.460;4.866;2023-05-07T13:21:37;16.36;88.98
75899;DHT22;64576;50.460;4.866;2023-05-07T13:24:03;16.46;91.35
75899;DHT22;64576;50.460;4.866;2023-05-07T13:26:30;16.66;91.97
75899;DHT22;64576;50.460;4.866;2023-05-07T13:28:56;16.60;89.84
75899;DHT22;64576;50.460;4.866;2023-05-07T13:31:22;16.63;90.56
75899;DHT22;64576;50.460;4.866;2023-05-07T13:33:47;16.79;90.83
75899;DHT22;64576;50.460;4.866;2023-05-07T13:36:13;16.87;90.42
75899;DHT22;64576;50.460;4.866;2023-05-07T13:38:41;16.94;90.84
75899;DHT22;64576;50.460;4.866;2023-05-07T13:41:07;16.91;89.36
75899;DHT22;64576;50.460;4.866;2023-05-07T13:43:32;16.84;89.31
75899;DHT22;64576;50.460;4.866;2023-05-07T13:46:00;16.87;89.94
75899;DHT22;64576;50.460;4.866;2023-05-07T13:48:26;16.80;88.77
75899;DHT22;64576;50.460;4.866;2023-05-07T13:50:53;16.74;89.91
75899;DHT22;64576;50.460;4.866;2023-05-07T13:53:18;16.55;91.01
75899;DHT22;64576;50.460;4.866;2023-05-07T13:55:44;16.55;91.83
75899;DHT22;64576;50.460;4.866;2023-05-07T13:58:10;16.53;91.76
75899;DHT22;64576;50.460;4.866;2023-05-07T14:00:35;16.63;92.44
75899;DHT22;64576;50.460;4.866;2023-05-07T14:03:01;16.77;93.46
75899;DHT22;64576;50.460;4.866;2023-05-07T14:05:27;16.85;91.80
75899;DHT22;64576;50.460;4.866;2023-05-07T14:07:54;16.59;91.50
75899;DHT22;64576;50.460;4.866;2023-05-07T14:10:20;16.49;91.90
75899;DHT22;64576;50.460;4.866;2023-05-07T14:12:46;16.39;92.00
75899;DHT22;64576;50.460;4.866;2023-05-07T14:15:12;16.19;92.35
75899;DHT22;64576;50.460;4.866;2023-05-07T14:17:38;16.15;93.00
75899;DHT22;64576;50.460;4.866;2023-05-07T14:20:03;16.29;93.68
75899;DHT22;64576;50.460;4.866;2023-05-07T14:22:29;16.41;93.85
75899;DHT22;64576;50.460;4.866;2023-05-07T14:24:54;16.23;93.31
75899;DHT22;64576;50.460;4.866;2023-05-07T14:27:20;16.33;94.04
75899;DHT22;64576;50.460;4.866;2023-05-07T14:29:45;16.30;93.29
75899;DHT22;64576;50.460;4.866;2023-05-07T14:32:16;16.48;93.69
75899;DHT22;64576;50.460;4.866;2023-05-07T14:34:42;16.33;92.38
75899;DHT22;64576;50.460;4.866;2023-05-07T14:37:07;16.46;93.31
75899;DHT22;64576;50.460;4.866;2023-05-07T14:39:32;16.14;92.56
75899;DHT22;64576;50.460;4.866;2023-05-07T14:41:58;16.18;93.44
75899;DHT22;64576;50.460;4.866;2023-05-07T14:44:23;16.26;93.46
75899;DHT22;64576;50.460;4.866;2023-05-07T14:46:49;16.25;93.06
75899;DHT22;64576;50.460;4.866;2023-05-07T14:49:14;16.21;93.69
75899;DHT22;64576;50.460;4.866;2023-05-07T14:51:45;16.14;92.53
75899;DHT22;64576;50.460;4.866;2023-05-07T14:54:12;15.95;92.42
75899;DHT22;64576;50.460;4.866;2023-05-07T14:56:38;15.93;93.49
75899;DHT22;64576;50.460;4.866;2023-05-07T14:59:03;15.91;93.85
75899;DHT22;64576;50.460;4.866;2023-05-07T15:01:29;16.01;93.92
75899;DHT22;64576;50.460;4.866;2023-05-07T15:03:55;16.09;93.69
75899;DHT22;64576;50.460;4.866;2023-05-07T15:06:21;16.15;94.56
75899;DHT22;64576;50.460;4.866;2023-05-07T15:08:46;16.05;92.81
75899;DHT22;64576;50.460;4.866;2023-05-07T15:11:13;16.26;94.37
75899;DHT22;64576;50.460;4.866;2023-05-07T15:13:39;16.39;92.64
75899;DHT22;64576;50.460;4.866;2023-05-07T15:16:04;16.67;92.71
75899;DHT22;64576;50.460;4.866;2023-05-07T15:18:30;16.59;91.26
75899;DHT22;64576;50.460;4.866;2023-05-07T15:20:55;16.83;90.98
75899;DHT22;64576;50.460;4.866;2023-05-07T15:23:21;16.97;90.56
75899;DHT22;64576;50.460;4.866;2023-05-07T15:25:47;17.00;90.32
75899;DHT22;64576;50.460;4.866;2023-05-07T15:28:12;17.15;88.83
75899;DHT22;64576;50.460;4.866;2023-05-07T15:30:37;17.28;87.99
75899;DHT22;64576;50.460;4.866;2023-05-07T15:33:03;17.52;86.31
75899;DHT22;64576;50.460;4.866;2023-05-07T15:35:28;17.56;85.06
75899;DHT22;64576;50.460;4.866;2023-05-07T15:37:54;17.94;85.14
75899;DHT22;64576;50.460;4.866;2023-05-07T15:40:19;17.80;85.95
75899;DHT22;64576;50.460;4.866;2023-05-07T15:42:45;17.76;86.04